createdAt,value
2018-07-19T00:02:00.917Z,74.98
2018-07-19T00:04:28.609Z,75.52
2018-07-19T00:06:56.334Z,76.31
2018-07-19T00:09:24.043Z,76.72
2018-07-19T00:11:51.731Z,76.85
2018-07-19T00:14:19.483Z,75.56
2018-07-19T00:16:47.274Z,75.38
2018-07-19T00:19:14.969Z,75.74
2018-07-19T00:21:42.725Z,76.41
2018-07-19T00:24:10.425Z,75.52
2018-07-19T00:26:38.205Z,76.04
2018-07-19T00:29:05.907Z,76.54
2018-07-19T00:31:33.659Z,75.97
2018-07-19T00:34:01.398Z,75.72
2018-07-19T00:36:29.180Z,76.52
2018-07-19T00:38:56.870Z,76.64
2018-07-19T00:41:24.600Z,76.40
2018-07-19T00:43:52.421Z,77.58
2018-07-19T00:46:20.083Z,77.65
2018-07-19T00:48:47.862Z,77.53
2018-07-19T00:51:15.595Z,78.09
2018-07-19T00:53:43.405Z,78.50
2018-07-19T00:56:11.169Z,77.69
2018-07-19T00:58:38.924Z,77.70
2018-07-19T01:01:06.746Z,77.55
2018-07-19T01:03:34.604Z,77.13
2018-07-19T01:06:02.399Z,77.28
2018-07-19T01:08:30.177Z,77.82
2018-07-19T01:10:58.071Z,78.06
2018-07-19T01:13:25.841Z,78.02
2018-07-19T01:15:53.825Z,77.91
2018-07-19T01:18:21.603Z,77.91
2018-07-19T01:20:49.354Z,77.81
2018-07-19T01:23:17.096Z,78.43
2018-07-19T01:25:44.910Z,77.43
2018-07-19T01:28:12.676Z,78.19
2018-07-19T01:30:40.445Z,79.31
2018-07-19T01:33:08.196Z,78.94
2018-07-19T01:35:35.977Z,79.18
2018-07-19T01:38:03.809Z,78.66
2018-07-19T01:40:31.514Z,79.03
2018-07-19T01:42:59.257Z,79.44
2018-07-19T01:45:26.989Z,79.19
2018-07-19T01:47:54.784Z,78.80
2018-07-19T01:50:22.506Z,79.47
2018-07-19T01:52:50.233Z,78.74
2018-07-19T01:55:17.905Z,78.41
2018-07-19T01:57:45.672Z,78.53
2018-07-19T02:00:13.464Z,78.80
2018-07-19T02:02:41.174Z,78.89
2018-07-19T02:05:08.970Z,78.55
2018-07-19T02:07:36.706Z,78.43
2018-07-19T02:10:04.857Z,78.12
2018-07-19T02:12:32.605Z,77.48
2018-07-19T02:15:00.282Z,77.84
2018-07-19T02:17:27.988Z,78.22
2018-07-19T02:19:55.752Z,78.35
2018-07-19T02:22:23.451Z,78.73
2018-07-19T02:24:51.169Z,78.64
2018-07-19T02:27:18.906Z,78.91
2018-07-19T02:29:46.631Z,79.05
2018-07-19T02:32:14.387Z,78.53
2018-07-19T02:34:42.125Z,78.29
2018-07-19T02:37:09.854Z,78.62
2018-07-19T02:39:37.547Z,78.91
2018-07-19T02:42:05.345Z,78.26
2018-07-19T02:44:33.063Z,78.46
2018-07-19T02:47:00.758Z,78.50
2018-07-19T02:49:28.445Z,78.34
2018-07-19T02:51:56.177Z,78.25
2018-07-19T02:54:23.830Z,77.83
2018-07-19T02:56:51.582Z,78.27
2018-07-19T02:59:19.488Z,77.97
2018-07-19T03:01:47.326Z,78.30
2018-07-19T03:04:15.072Z,79.17
2018-07-19T03:06:42.831Z,78.34
2018-07-19T03:09:10.566Z,78.80
2018-07-19T03:11:38.285Z,79.22
2018-07-19T03:14:06.045Z,78.49
2018-07-19T03:16:33.830Z,78.86
2018-07-19T03:19:01.567Z,78.32
2018-07-19T03:21:29.352Z,78.76
2018-07-19T03:23:57.094Z,78.06
2018-07-19T03:26:24.853Z,78.54
2018-07-19T03:28:52.573Z,77.87
2018-07-19T03:31:20.369Z,78.06
2018-07-19T03:33:48.121Z,77.85
2018-07-19T03:36:15.847Z,77.79
2018-07-19T03:38:43.605Z,77.81
2018-07-19T03:41:11.301Z,77.61
2018-07-19T03:43:39.062Z,77.99
2018-07-19T03:46:06.898Z,77.68
2018-07-19T03:48:34.632Z,76.77
2018-07-19T03:51:02.516Z,76.08
2018-07-19T03:53:30.277Z,75.33
2018-07-19T03:55:58.003Z,74.94
2018-07-19T03:58:25.787Z,73.80
2018-07-19T04:00:53.515Z,72.28
2018-07-19T04:03:21.227Z,71.33
2018-07-19T04:05:48.958Z,70.01
2018-07-19T04:08:16.739Z,68.91
2018-07-19T04:10:44.536Z,68.08
2018-07-19T04:13:12.338Z,66.83
2018-07-19T04:15:40.102Z,66.15
2018-07-19T04:18:07.841Z,64.66
2018-07-19T04:20:35.665Z,64.82
2018-07-19T04:23:03.452Z,63.75
2018-07-19T04:25:31.184Z,62.81
2018-07-19T04:27:59.006Z,61.72
2018-07-19T04:30:26.729Z,60.08
2018-07-19T04:32:54.543Z,59.43
2018-07-19T04:35:22.373Z,58.40
2018-07-19T04:37:50.079Z,57.69
2018-07-19T04:40:17.855Z,58.00
2018-07-19T04:42:45.644Z,56.22
2018-07-19T04:45:14.376Z,56.31
2018-07-19T04:47:42.127Z,54.66
2018-07-19T04:50:09.880Z,53.17
2018-07-19T04:52:37.648Z,52.93
2018-07-19T04:55:05.477Z,51.13
2018-07-19T04:57:33.272Z,48.94
2018-07-19T05:00:01.001Z,49.76
2018-07-19T05:02:28.814Z,45.88
2018-07-19T05:04:56.560Z,47.17
2018-07-19T05:07:24.281Z,46.82
2018-07-19T05:09:53.036Z,47.49
2018-07-19T05:12:20.864Z,46.09
2018-07-19T05:14:48.591Z,43.92
2018-07-19T05:17:16.392Z,44.16
2018-07-19T05:19:45.805Z,42.92
2018-07-19T05:22:13.555Z,42.80
2018-07-19T05:24:41.234Z,42.72
2018-07-19T05:27:08.944Z,42.70
2018-07-19T05:29:36.693Z,41.60
2018-07-19T05:32:04.445Z,40.91
2018-07-19T05:34:32.227Z,38.79
2018-07-19T05:36:59.927Z,39.72
2018-07-19T05:39:27.610Z,37.68
2018-07-19T05:41:55.379Z,38.29
2018-07-19T05:44:23.170Z,37.78
2018-07-19T05:46:50.904Z,37.68
2018-07-19T05:49:18.693Z,37.34
2018-07-19T05:51:46.453Z,36.29
2018-07-19T05:54:14.358Z,35.21
2018-07-19T05:56:42.205Z,35.89
2018-07-19T05:59:09.967Z,36.21
2018-07-19T06:01:37.785Z,35.68
2018-07-19T06:04:05.806Z,35.53
2018-07-19T06:06:33.582Z,35.59
2018-07-19T06:09:01.345Z,33.38
2018-07-19T06:11:30.194Z,34.43
2018-07-19T06:13:57.982Z,34.64
2018-07-19T06:16:25.926Z,33.94
2018-07-19T06:18:53.644Z,34.39
2018-07-19T06:21:21.368Z,32.96
2018-07-19T06:23:49.197Z,31.70
2018-07-19T06:26:17.007Z,32.50
2018-07-19T06:28:44.823Z,33.04
2018-07-19T06:31:12.694Z,31.73
2018-07-19T06:33:40.486Z,32.67
2018-07-19T06:36:08.265Z,32.81
2018-07-19T06:38:36.028Z,31.85
2018-07-19T06:41:03.912Z,30.76
2018-07-19T06:43:31.680Z,29.84
2018-07-19T06:45:59.482Z,30.86
2018-07-19T06:48:27.217Z,30.40
2018-07-19T06:50:55.031Z,29.25
2018-07-19T06:53:22.881Z,28.32
2018-07-19T06:55:50.646Z,30.10
2018-07-19T06:58:18.456Z,28.75
2018-07-19T07:00:46.235Z,29.19
2018-07-19T07:03:14.946Z,30.13
2018-07-19T07:05:42.692Z,28.92
2018-07-19T07:08:10.472Z,28.91
2018-07-19T07:10:38.245Z,27.53
2018-07-19T07:13:06.114Z,26.95
2018-07-19T07:15:33.850Z,28.39
2018-07-19T07:18:01.613Z,28.42
2018-07-19T07:20:29.379Z,27.59
2018-07-19T07:22:57.157Z,27.44
2018-07-19T07:25:24.972Z,27.38
2018-07-19T07:27:53.260Z,25.61
2018-07-19T07:30:21.101Z,26.95
2018-07-19T07:32:49.536Z,27.76
2018-07-19T07:35:17.360Z,27.50
2018-07-19T07:37:45.335Z,26.12
2018-07-19T07:40:13.187Z,26.71
2018-07-19T07:42:40.956Z,27.56
2018-07-19T07:45:08.699Z,26.52
2018-07-19T07:47:36.559Z,25.01
2018-07-19T07:50:04.319Z,25.55
2018-07-19T07:52:32.102Z,25.62
2018-07-19T07:55:00.316Z,24.17
2018-07-19T07:57:28.059Z,25.18
2018-07-19T07:59:55.878Z,24.80
2018-07-19T08:02:23.683Z,25.30
2018-07-19T08:04:51.411Z,24.07
2018-07-19T08:07:19.172Z,24.80
2018-07-19T08:09:46.953Z,24.70
2018-07-19T08:12:14.786Z,25.29
2018-07-19T08:14:42.685Z,25.66
2018-07-19T08:17:10.499Z,24.45
2018-07-19T08:19:38.242Z,24.25
2018-07-19T08:22:06.033Z,24.83
2018-07-19T08:24:33.768Z,24.01
2018-07-19T08:27:01.503Z,25.04
2018-07-19T08:29:29.455Z,24.49
2018-07-19T08:31:57.351Z,24.04
2018-07-19T08:34:25.482Z,22.49
2018-07-19T08:36:53.376Z,23.25
2018-07-19T08:39:21.230Z,23.64
2018-07-19T08:41:49.034Z,23.61
2018-07-19T08:44:17.443Z,23.06
2018-07-19T08:46:45.264Z,22.67
2018-07-19T08:49:13.029Z,22.61
2018-07-19T08:51:40.889Z,23.02
2018-07-19T08:54:08.657Z,22.23
2018-07-19T08:56:36.571Z,23.02
2018-07-19T08:59:04.399Z,21.96
2018-07-19T09:01:32.205Z,23.41
2018-07-19T09:04:00.018Z,22.97
2018-07-19T09:06:27.793Z,22.45
2018-07-19T09:08:55.573Z,23.56
2018-07-19T09:11:23.357Z,22.73
2018-07-19T09:13:51.189Z,23.06
2018-07-19T09:16:19.891Z,22.03
2018-07-19T09:18:47.789Z,22.49
2018-07-19T09:21:15.583Z,22.27
2018-07-19T09:23:43.388Z,22.23
2018-07-19T09:26:11.365Z,22.38
2018-07-19T09:28:39.075Z,21.41
2018-07-19T09:31:06.850Z,21.64
2018-07-19T09:33:35.813Z,22.61
2018-07-19T09:36:03.612Z,21.96
2018-07-19T09:38:31.739Z,21.60
2018-07-19T09:40:59.709Z,22.76
2018-07-19T09:43:27.838Z,22.34
2018-07-19T09:45:56.028Z,20.61
2018-07-19T09:48:23.988Z,20.66
2018-07-19T09:50:52.424Z,21.33
2018-07-19T09:53:20.300Z,20.11
2018-07-19T09:55:48.224Z,20.04
2018-07-19T09:58:16.149Z,20.69
2018-07-19T10:00:49.663Z,20.55
2018-07-19T10:03:17.908Z,20.36
2018-07-19T10:05:45.935Z,20.11
2018-07-19T10:08:13.758Z,19.16
2018-07-19T10:10:42.588Z,21.21
2018-07-19T10:13:10.589Z,20.45
2018-07-19T10:15:38.503Z,19.97
2018-07-19T10:18:06.596Z,20.50
2018-07-19T10:20:34.528Z,20.50
2018-07-19T10:23:02.425Z,21.66
2018-07-19T10:25:30.434Z,21.63
2018-07-19T10:27:58.336Z,20.46
2018-07-19T10:30:26.240Z,21.28
2018-07-19T10:32:54.172Z,20.79
2018-07-19T10:35:22.333Z,20.71
2018-07-19T10:37:50.251Z,20.86
2018-07-19T10:40:18.264Z,19.68
2018-07-19T10:42:46.135Z,20.97
2018-07-19T10:45:14.071Z,21.87
2018-07-19T10:47:42.051Z,21.41
2018-07-19T10:50:09.983Z,20.00
2018-07-19T10:52:37.991Z,20.69
2018-07-19T10:55:06.120Z,21.22
2018-07-19T10:57:34.057Z,20.10
2018-07-19T11:00:01.923Z,21.50
2018-07-19T11:02:29.793Z,21.04
2018-07-19T11:04:58.029Z,21.27
2018-07-19T11:07:25.848Z,21.91
2018-07-19T11:09:53.947Z,20.85
2018-07-19T11:12:21.832Z,22.05
2018-07-19T11:14:49.798Z,21.54
2018-07-19T11:17:17.714Z,21.59
2018-07-19T11:19:45.812Z,21.68
2018-07-19T11:22:13.841Z,21.42
2018-07-19T11:24:41.825Z,21.01
2018-07-19T11:27:09.792Z,22.31
2018-07-19T11:29:37.780Z,20.95
2018-07-19T11:32:05.691Z,21.51
2018-07-19T11:34:33.625Z,22.34
2018-07-19T11:37:01.522Z,21.13
2018-07-19T11:39:29.455Z,22.13
2018-07-19T11:41:57.965Z,22.28
2018-07-19T11:44:27.156Z,22.69
2018-07-19T11:46:55.038Z,22.15
2018-07-19T11:49:23.109Z,22.21
2018-07-19T11:51:51.030Z,22.45
2018-07-19T11:54:18.908Z,22.04
2018-07-19T11:56:46.732Z,21.40
2018-07-19T11:59:16.049Z,22.00
2018-07-19T12:01:43.980Z,22.30
2018-07-19T12:04:11.917Z,21.54
2018-07-19T12:06:39.850Z,21.39
2018-07-19T12:09:10.168Z,21.72
2018-07-19T12:11:38.176Z,21.98
2018-07-19T12:14:06.220Z,21.49
2018-07-19T12:16:34.212Z,21.65
2018-07-19T12:19:02.221Z,21.98
2018-07-19T12:21:30.154Z,22.51
2018-07-19T12:23:58.195Z,22.04
2018-07-19T12:26:26.142Z,21.23
2018-07-19T12:28:54.080Z,21.41
2018-07-19T12:31:22.005Z,21.61
2018-07-19T12:33:49.965Z,22.89
2018-07-19T12:36:18.104Z,22.96
2018-07-19T12:38:46.062Z,22.75
2018-07-19T12:41:14.005Z,22.40
2018-07-19T12:43:41.958Z,21.60
2018-07-19T12:46:09.928Z,20.63
2018-07-19T12:48:37.801Z,21.76
2018-07-19T12:51:05.772Z,21.98
2018-07-19T12:53:33.765Z,21.35
2018-07-19T12:56:01.643Z,21.89
2018-07-19T12:58:29.628Z,21.91
2018-07-19T13:00:57.533Z,22.01
2018-07-19T13:03:25.412Z,21.97
2018-07-19T13:05:53.383Z,21.93
2018-07-19T13:08:21.268Z,21.84
2018-07-19T13:10:49.153Z,21.66
2018-07-19T13:13:17.590Z,21.02
2018-07-19T13:15:46.428Z,22.11
2018-07-19T13:18:14.325Z,22.41
2018-07-19T13:20:42.299Z,22.32
2018-07-19T13:23:10.265Z,21.95
2018-07-19T13:25:38.220Z,21.71
2018-07-19T13:28:06.581Z,22.24
2018-07-19T13:30:34.525Z,22.02
2018-07-19T13:33:02.409Z,22.37
2018-07-19T13:35:30.435Z,22.30
2018-07-19T13:37:58.322Z,22.53
2018-07-19T13:40:26.267Z,22.56
2018-07-19T13:42:54.218Z,20.97
2018-07-19T13:45:22.121Z,21.77
2018-07-19T13:47:50.071Z,21.57
2018-07-19T13:50:18.157Z,21.37
2018-07-19T13:55:03.552Z,21.36
2018-07-19T13:57:31.443Z,21.06
2018-07-19T13:59:59.356Z,20.99
2018-07-19T14:02:27.339Z,21.67
2018-07-19T14:04:55.280Z,21.97
2018-07-19T14:07:23.216Z,21.48
2018-07-19T14:09:51.124Z,22.12
2018-07-19T14:12:19.127Z,22.39
2018-07-19T14:14:47.040Z,21.91
2018-07-19T14:17:14.934Z,21.52
2018-07-19T14:19:42.822Z,22.04
2018-07-19T14:22:10.744Z,22.73
2018-07-19T14:24:38.709Z,23.29
2018-07-19T14:27:07.474Z,23.40
2018-07-19T14:29:35.452Z,23.36
2018-07-19T14:32:03.440Z,23.83
2018-07-19T14:34:31.422Z,24.68
2018-07-19T14:36:59.314Z,24.02
2018-07-19T14:39:27.274Z,24.71
2018-07-19T14:41:55.228Z,24.54
2018-07-19T14:44:23.250Z,24.21
2018-07-19T14:46:51.158Z,24.55
2018-07-19T14:49:19.086Z,25.46
2018-07-19T14:51:47.056Z,25.85
2018-07-19T14:54:14.994Z,25.76
2018-07-19T14:56:42.913Z,25.96
2018-07-19T14:59:10.839Z,25.33
2018-07-19T15:01:38.758Z,26.05
2018-07-19T15:04:06.775Z,26.68
2018-07-19T15:06:34.658Z,27.35
2018-07-19T15:09:03.336Z,28.77
2018-07-19T15:11:31.294Z,28.86
2018-07-19T15:13:59.184Z,29.47
2018-07-19T15:16:27.095Z,29.43
2018-07-19T15:18:55.033Z,29.78
2018-07-19T15:21:22.951Z,30.16
2018-07-19T15:23:50.882Z,30.60
2018-07-19T15:26:18.716Z,30.60
2018-07-19T15:28:46.647Z,31.09
2018-07-19T15:31:14.628Z,30.61
2018-07-19T15:33:42.484Z,31.20
2018-07-19T15:36:10.386Z,31.58
2018-07-19T15:38:38.298Z,30.71
2018-07-19T15:41:06.175Z,31.61
2018-07-19T15:43:34.053Z,32.72
2018-07-19T15:46:01.900Z,32.86
2018-07-19T15:48:29.796Z,32.83
2018-07-19T15:50:57.613Z,32.88
2018-07-19T15:53:25.462Z,33.61
2018-07-19T15:55:53.352Z,33.50
2018-07-19T15:58:21.261Z,32.65
2018-07-19T16:00:49.235Z,32.54
2018-07-19T16:03:17.164Z,32.93
2018-07-19T16:05:45.014Z,32.99
2018-07-19T16:08:12.874Z,33.73
2018-07-19T16:10:40.784Z,33.28
2018-07-19T16:13:08.704Z,33.57
2018-07-19T16:15:36.564Z,33.26
2018-07-19T16:18:04.407Z,34.40
2018-07-19T16:20:32.663Z,34.22
2018-07-19T16:23:00.613Z,33.60
2018-07-19T16:25:28.742Z,33.81
2018-07-19T16:27:56.722Z,34.66
2018-07-19T16:30:24.596Z,33.68
2018-07-19T16:32:52.521Z,33.99
2018-07-19T16:35:20.438Z,33.69
2018-07-19T16:37:48.308Z,33.92
2018-07-19T16:40:16.214Z,33.74
2018-07-19T16:42:44.157Z,34.49
2018-07-19T16:45:12.065Z,34.42
2018-07-19T16:47:39.961Z,34.16
2018-07-19T16:50:07.893Z,34.32
2018-07-19T16:52:35.826Z,34.40
2018-07-19T16:55:03.835Z,34.33
2018-07-19T16:57:31.735Z,34.60
2018-07-19T16:59:59.705Z,35.06
2018-07-19T17:02:27.828Z,34.27
2018-07-19T17:04:55.576Z,34.34
2018-07-19T17:07:23.453Z,34.44
2018-07-19T17:09:51.173Z,34.39
2018-07-19T17:12:18.954Z,35.24
2018-07-19T17:14:46.706Z,34.64
2018-07-19T17:17:14.622Z,34.63
2018-07-19T17:19:42.329Z,34.54
2018-07-19T17:22:10.101Z,35.63
2018-07-19T17:24:37.826Z,34.47
2018-07-19T17:27:05.570Z,35.31
2018-07-19T17:29:33.269Z,34.91
2018-07-19T17:32:01.036Z,34.41
2018-07-19T17:34:28.798Z,34.49
2018-07-19T17:36:56.887Z,34.52
2018-07-19T17:39:24.679Z,34.64
2018-07-19T17:41:52.444Z,35.28
2018-07-19T17:44:20.284Z,35.33
2018-07-19T17:46:48.113Z,34.57
2018-07-19T17:49:15.870Z,35.03
2018-07-19T17:51:43.693Z,35.60
2018-07-19T17:54:11.580Z,35.83
2018-07-19T17:56:39.353Z,36.06
2018-07-19T17:59:07.148Z,35.81
2018-07-19T18:01:34.928Z,34.87
2018-07-19T18:04:02.799Z,35.22
2018-07-19T18:06:30.545Z,35.69
2018-07-19T18:08:58.362Z,34.92
2018-07-19T18:11:26.095Z,35.91
2018-07-19T18:13:53.860Z,36.23
2018-07-19T18:16:21.716Z,36.59
2018-07-19T18:18:49.453Z,36.29
2018-07-19T18:21:17.237Z,36.48
2018-07-19T18:23:45.196Z,35.79
2018-07-19T18:26:13.026Z,35.79
2018-07-19T18:28:40.913Z,36.73
2018-07-19T18:31:08.670Z,36.71
2018-07-19T18:33:36.403Z,37.00
2018-07-19T18:36:04.199Z,38.82
2018-07-19T18:38:31.906Z,39.07
2018-07-19T18:40:59.787Z,39.52
2018-07-19T18:43:27.571Z,40.81
2018-07-19T18:45:55.344Z,40.92
2018-07-19T18:48:23.207Z,41.18
2018-07-19T18:50:50.989Z,40.81
2018-07-19T18:53:18.753Z,39.98
2018-07-19T18:55:46.539Z,39.87
2018-07-19T18:58:14.296Z,40.14
2018-07-19T19:00:42.017Z,40.03
2018-07-19T19:03:09.810Z,39.87
2018-07-19T19:05:37.613Z,40.11
2018-07-19T19:08:05.463Z,40.12
2018-07-19T19:10:33.404Z,39.81
2018-07-19T19:13:01.130Z,40.24
2018-07-19T19:15:28.866Z,42.75
2018-07-19T19:17:56.697Z,42.88
2018-07-19T19:20:24.406Z,42.77
2018-07-19T19:22:52.135Z,42.60
2018-07-19T19:25:19.854Z,43.48
2018-07-19T19:27:47.537Z,43.59
2018-07-19T19:30:15.424Z,44.76
2018-07-19T19:32:43.120Z,45.76
2018-07-19T19:35:10.907Z,45.77
2018-07-19T19:37:38.677Z,46.53
2018-07-19T19:40:06.431Z,46.78
2018-07-19T19:42:34.172Z,47.64
2018-07-19T19:45:01.947Z,47.87
2018-07-19T19:47:29.632Z,48.50
2018-07-19T19:49:57.423Z,48.42
2018-07-19T19:52:25.246Z,49.11
2018-07-19T19:54:53.149Z,49.52
2018-07-19T19:57:20.966Z,49.88
2018-07-19T19:59:48.723Z,50.14
2018-07-19T20:02:16.554Z,50.66
2018-07-19T20:04:44.289Z,50.52
2018-07-19T20:07:12.505Z,50.45
2018-07-19T20:09:40.369Z,51.83
2018-07-19T20:12:08.140Z,52.37
2018-07-19T20:14:35.914Z,52.10
2018-07-19T20:17:03.806Z,52.71
2018-07-19T20:19:31.549Z,53.40
2018-07-19T20:21:59.318Z,53.77
2018-07-19T20:24:27.068Z,53.91
2018-07-19T20:26:54.825Z,56.06
2018-07-19T20:29:22.597Z,57.48
2018-07-19T20:31:50.388Z,57.99
2018-07-19T20:34:20.449Z,57.35
2018-07-19T20:36:47.151Z,56.61
2018-07-19T20:39:14.896Z,57.61
2018-07-19T20:41:42.689Z,58.30
2018-07-19T20:44:10.418Z,58.09
2018-07-19T20:46:38.173Z,59.31
2018-07-19T20:49:06.105Z,58.74
2018-07-19T20:51:33.870Z,59.14
2018-07-19T20:54:01.680Z,59.89
2018-07-19T20:56:29.383Z,59.62
2018-07-19T20:58:57.121Z,59.82
2018-07-19T21:01:24.833Z,59.73
2018-07-19T21:03:52.576Z,60.04
2018-07-19T21:06:20.289Z,60.50
2018-07-19T21:08:47.991Z,60.58
2018-07-19T21:11:15.693Z,61.38
2018-07-19T21:13:43.421Z,61.18
2018-07-19T21:16:11.118Z,61.12
2018-07-19T21:18:38.871Z,61.42
2018-07-19T21:21:06.677Z,60.92
2018-07-19T21:23:34.574Z,61.98
2018-07-19T21:26:02.412Z,62.83
2018-07-19T21:28:30.202Z,63.10
2018-07-19T21:30:57.957Z,63.72
2018-07-19T21:33:25.748Z,63.14
2018-07-19T21:35:53.547Z,64.23
2018-07-19T21:38:21.335Z,65.03
2018-07-19T21:40:49.116Z,64.28
2018-07-19T21:43:16.856Z,64.52
2018-07-19T21:45:44.630Z,64.27
2018-07-19T21:48:12.396Z,65.08
2018-07-19T21:50:40.160Z,66.21
2018-07-19T21:53:07.939Z,65.84
2018-07-19T21:55:35.728Z,66.21
2018-07-19T21:58:03.474Z,66.12
2018-07-19T22:00:31.360Z,66.52
2018-07-19T22:03:00.882Z,66.69
2018-07-19T22:05:28.639Z,66.87
2018-07-19T22:07:56.532Z,67.12
2018-07-19T22:10:24.329Z,67.39
2018-07-19T22:12:52.192Z,68.73
2018-07-19T22:15:20.008Z,68.15
2018-07-19T22:17:47.765Z,68.40
2018-07-19T22:20:15.613Z,67.42
2018-07-19T22:22:43.430Z,68.20
2018-07-19T22:25:11.184Z,68.32
2018-07-19T22:27:38.907Z,69.75
2018-07-19T22:30:06.747Z,69.09
2018-07-19T22:32:34.542Z,69.37
2018-07-19T22:35:02.355Z,69.17
2018-07-19T22:37:30.139Z,68.65
2018-07-19T22:39:58.047Z,69.33
2018-07-19T22:42:25.885Z,69.03
2018-07-19T22:44:53.647Z,69.56
2018-07-19T22:47:21.390Z,69.71
2018-07-19T22:49:49.112Z,69.96
2018-07-19T22:52:16.877Z,69.77
2018-07-19T22:54:44.674Z,70.17
2018-07-19T22:57:12.428Z,69.41
2018-07-19T22:59:40.154Z,70.13
2018-07-19T23:02:07.880Z,69.80
2018-07-19T23:04:35.659Z,70.29
2018-07-19T23:07:03.464Z,70.04
2018-07-19T23:09:31.197Z,70.48
2018-07-19T23:11:58.881Z,70.05
2018-07-19T23:14:26.654Z,71.20
2018-07-19T23:16:54.448Z,70.66
2018-07-19T23:19:22.097Z,72.17
2018-07-19T23:21:49.841Z,71.91
2018-07-19T23:24:17.617Z,71.65
2018-07-19T23:26:45.422Z,72.62
2018-07-19T23:29:13.275Z,72.60
2018-07-19T23:31:41.132Z,72.32
2018-07-19T23:34:08.932Z,72.52
2018-07-19T23:36:45.398Z,72.15
2018-07-19T23:40:17.313Z,73.63
2018-07-19T23:42:48.290Z,72.74
2018-07-19T23:46:22.433Z,72.81
2018-07-19T23:48:50.218Z,72.78
2018-07-19T23:51:17.952Z,73.27
2018-07-19T23:53:45.653Z,72.99
2018-07-19T23:56:13.442Z,72.87
2018-07-19T23:58:41.165Z,72.70
